sensor_id;sensor_type;location;lat;lon;timestamp;P1;durP1;ratioP1;P2;durP2;ratioP2
7181;SDS011;3632;42.724;23.298;2023-02-22T00:00:10;11.23;;;7.93;;
7181;SDS011;3632;42.724;23.298;2023-02-22T00:02:54;11.63;;;7.07;;
7181;SDS011;3632;42.724;23.298;2023-02-22T00:05:24;11.03;;;7.23;;
7181;SDS011;3632;42.724;23.298;2023-02-22T00:07:52;12.90;;;8.97;;
7181;SDS011;3632;42.724;23.298;2023-02-22T00:10:21;19.83;;;11.70;;
7181;SDS011;3632;42.724;23.298;2023-02-22T00:12:48;12.03;;;8.40;;
7181;SDS011;3632;42.724;23.298;2023-02-22T00:15:18;11.13;;;7.93;;
7181;SDS011;3632;42.724;23.298;2023-02-22T00:17:47;11.13;;;7.07;;
7181;SDS011;3632;42.724;23.298;2023-02-22T00:20:15;12.73;;;6.53;;
7181;SDS011;3632;42.724;23.298;2023-02-22T00:22:44;10.30;;;5.60;;
7181;SDS011;3632;42.724;23.298;2023-02-22T00:25:12;7.60;;;4.70;;
7181;SDS011;3632;42.724;23.298;2023-02-22T00:27:41;7.57;;;4.77;;
7181;SDS011;3632;42.724;23.298;2023-02-22T00:30:08;8.77;;;5.17;;
7181;SDS011;3632;42.724;23.298;2023-02-22T00:32:43;9.20;;;6.27;;
7181;SDS011;3632;42.724;23.298;2023-02-22T00:35:10;10.77;;;5.87;;
7181;SDS011;3632;42.724;23.298;2023-02-22T00:37:38;10.23;;;5.97;;
7181;SDS011;3632;42.724;23.298;2023-02-22T00:40:07;7.37;;;5.63;;
7181;SDS011;3632;42.724;23.298;2023-02-22T00:42:35;8.90;;;4.57;;
7181;SDS011;3632;42.724;23.298;2023-02-22T00:45:02;8.33;;;5.70;;
7181;SDS011;3632;42.724;23.298;2023-02-22T00:47:30;8.37;;;5.10;;
7181;SDS011;3632;42.724;23.298;2023-02-22T00:49:57;8.70;;;5.83;;
7181;SDS011;3632;42.724;23.298;2023-02-22T00:52:25;9.63;;;6.73;;
7181;SDS011;3632;42.724;23.298;2023-02-22T00:54:53;17.50;;;11.40;;
7181;SDS011;3632;42.724;23.298;2023-02-22T00:57:22;21.80;;;11.07;;
7181;SDS011;3632;42.724;23.298;2023-02-22T00:59:49;17.40;;;10.43;;
7181;SDS011;3632;42.724;23.298;2023-02-22T01:02:16;11.43;;;7.90;;
7181;SDS011;3632;42.724;23.298;2023-02-22T01:04:43;13.70;;;7.63;;
7181;SDS011;3632;42.724;23.298;2023-02-22T01:07:10;12.23;;;8.10;;
7181;SDS011;3632;42.724;23.298;2023-02-22T01:09:38;10.93;;;7.80;;
7181;SDS011;3632;42.724;23.298;2023-02-22T01:12:07;16.70;;;9.40;;
7181;SDS011;3632;42.724;23.298;2023-02-22T01:14:33;17.97;;;9.93;;
7181;SDS011;3632;42.724;23.298;2023-02-22T01:17:00;14.60;;;9.43;;
7181;SDS011;3632;42.724;23.298;2023-02-22T01:19:27;16.33;;;9.67;;
7181;SDS011;3632;42.724;23.298;2023-02-22T01:21:53;15.37;;;9.60;;
7181;SDS011;3632;42.724;23.298;2023-02-22T01:24:20;14.17;;;8.63;;
7181;SDS011;3632;42.724;23.298;2023-02-22T01:26:48;18.53;;;10.17;;
7181;SDS011;3632;42.724;23.298;2023-02-22T01:29:18;18.57;;;11.03;;
7181;SDS011;3632;42.724;23.298;2023-02-22T01:31:50;16.57;;;10.10;;
7181;SDS011;3632;42.724;23.298;2023-02-22T01:34:18;15.30;;;9.63;;
7181;SDS011;3632;42.724;23.298;2023-02-22T01:36:46;18.30;;;9.30;;
7181;SDS011;3632;42.724;23.298;2023-02-22T01:39:13;19.53;;;10.40;;
7181;SDS011;3632;42.724;23.298;2023-02-22T01:41:40;31.80;;;17.27;;
7181;SDS011;3632;42.724;23.298;2023-02-22T01:44:19;37.10;;;17.63;;
7181;SDS011;3632;42.724;23.298;2023-02-22T01:46:51;34.70;;;18.23;;
7181;SDS011;3632;42.724;23.298;2023-02-22T01:49:18;20.93;;;12.57;;
7181;SDS011;3632;42.724;23.298;2023-02-22T01:51:46;17.73;;;10.23;;
7181;SDS011;3632;42.724;23.298;2023-02-22T01:54:17;16.97;;;9.80;;
7181;SDS011;3632;42.724;23.298;2023-02-22T01:56:47;17.20;;;10.40;;
7181;SDS011;3632;42.724;23.298;2023-02-22T01:59:20;19.23;;;11.17;;
7181;SDS011;3632;42.724;23.298;2023-02-22T02:01:48;18.23;;;10.93;;
7181;SDS011;3632;42.724;23.298;2023-02-22T02:04:16;21.70;;;11.27;;
7181;SDS011;3632;42.724;23.298;2023-02-22T02:06:49;18.53;;;11.73;;
7181;SDS011;3632;42.724;23.298;2023-02-22T02:09:19;17.60;;;10.60;;
7181;SDS011;3632;42.724;23.298;2023-02-22T02:11:50;16.60;;;10.90;;
7181;SDS011;3632;42.724;23.298;2023-02-22T02:14:18;27.57;;;15.70;;
7181;SDS011;3632;42.724;23.298;2023-02-22T02:16:47;37.27;;;21.60;;
7181;SDS011;3632;42.724;23.298;2023-02-22T02:19:20;33.80;;;20.80;;
7181;SDS011;3632;42.724;23.298;2023-02-22T02:22:00;36.80;;;19.10;;
7181;SDS011;3632;42.724;23.298;2023-02-22T02:24:50;26.03;;;15.70;;
7181;SDS011;3632;42.724;23.298;2023-02-22T02:27:50;26.27;;;14.23;;
7181;SDS011;3632;42.724;23.298;2023-02-22T02:33:37;28.70;;;17.60;;
7181;SDS011;3632;42.724;23.298;2023-02-22T02:36:10;26.07;;;15.83;;
7181;SDS011;3632;42.724;23.298;2023-02-22T02:38:45;24.37;;;15.27;;
7181;SDS011;3632;42.724;23.298;2023-02-22T02:41:18;26.13;;;15.47;;
7181;SDS011;3632;42.724;23.298;2023-02-22T02:43:52;25.50;;;14.77;;
7181;SDS011;3632;42.724;23.298;2023-02-22T02:46:25;27.13;;;15.27;;
7181;SDS011;3632;42.724;23.298;2023-02-22T02:48:59;26.47;;;17.37;;
7181;SDS011;3632;42.724;23.298;2023-02-22T02:51:29;36.83;;;22.20;;
7181;SDS011;3632;42.724;23.298;2023-02-22T02:53:59;52.50;;;28.23;;
7181;SDS011;3632;42.724;23.298;2023-02-22T02:56:28;51.53;;;30.40;;
7181;SDS011;3632;42.724;23.298;2023-02-22T02:58:56;29.37;;;17.20;;
7181;SDS011;3632;42.724;23.298;2023-02-22T03:01:30;35.00;;;21.23;;
7181;SDS011;3632;42.724;23.298;2023-02-22T03:04:20;33.87;;;20.83;;
7181;SDS011;3632;42.724;23.298;2023-02-22T03:07:02;37.73;;;22.97;;
7181;SDS011;3632;42.724;23.298;2023-02-22T03:09:44;52.90;;;30.30;;
7181;SDS011;3632;42.724;23.298;2023-02-22T03:12:25;87.50;;;45.63;;
7181;SDS011;3632;42.724;23.298;2023-02-22T03:15:05;116.47;;;61.20;;
7181;SDS011;3632;42.724;23.298;2023-02-22T03:17:40;164.50;;;83.33;;
7181;SDS011;3632;42.724;23.298;2023-02-22T03:20:15;110.93;;;57.00;;
7181;SDS011;3632;42.724;23.298;2023-02-22T03:22:56;58.93;;;32.47;;
7181;SDS011;3632;42.724;23.298;2023-02-22T03:25:26;81.93;;;42.73;;
7181;SDS011;3632;42.724;23.298;2023-02-22T03:27:59;83.50;;;43.27;;
7181;SDS011;3632;42.724;23.298;2023-02-22T03:30:30;83.80;;;45.97;;
7181;SDS011;3632;42.724;23.298;2023-02-22T03:33:03;82.47;;;43.40;;
7181;SDS011;3632;42.724;23.298;2023-02-22T03:35:36;73.57;;;38.77;;
7181;SDS011;3632;42.724;23.298;2023-02-22T03:38:06;65.50;;;35.13;;
7181;SDS011;3632;42.724;23.298;2023-02-22T03:40:37;77.20;;;38.43;;
7181;SDS011;3632;42.724;23.298;2023-02-22T03:43:08;77.97;;;39.83;;
7181;SDS011;3632;42.724;23.298;2023-02-22T03:45:39;138.13;;;69.37;;
7181;SDS011;3632;42.724;23.298;2023-02-22T03:48:10;118.60;;;55.53;;
7181;SDS011;3632;42.724;23.298;2023-02-22T03:50:44;86.47;;;41.60;;
7181;SDS011;3632;42.724;23.298;2023-02-22T03:53:11;80.00;;;37.97;;
7181;SDS011;3632;42.724;23.298;2023-02-22T03:55:38;65.97;;;31.50;;
7181;SDS011;3632;42.724;23.298;2023-02-22T03:58:07;45.53;;;23.30;;
7181;SDS011;3632;42.724;23.298;2023-02-22T04:00:37;59.37;;;28.10;;
7181;SDS011;3632;42.724;23.298;2023-02-22T04:03:08;54.00;;;28.27;;
7181;SDS011;3632;42.724;23.298;2023-02-22T04:05:35;49.03;;;26.93;;
7181;SDS011;3632;42.724;23.298;2023-02-22T04:08:04;58.20;;;31.37;;
7181;SDS011;3632;42.724;23.298;2023-02-22T04:10:31;58.03;;;33.40;;
7181;SDS011;3632;42.724;23.298;2023-02-22T04:12:58;56.03;;;31.60;;
7181;SDS011;3632;42.724;23.298;2023-02-22T04:15:25;53.47;;;29.53;;
7181;SDS011;3632;42.724;23.298;2023-02-22T04:17:52;55.73;;;29.37;;
7181;SDS011;3632;42.724;23.298;2023-02-22T04:20:19;46.03;;;27.20;;
7181;SDS011;3632;42.724;23.298;2023-02-22T04:22:49;44.33;;;25.57;;
7181;SDS011;3632;42.724;23.298;2023-02-22T04:25:19;49.70;;;25.57;;
7181;SDS011;3632;42.724;23.298;2023-02-22T04:27:46;48.27;;;25.70;;
7181;SDS011;3632;42.724;23.298;2023-02-22T04:30:16;44.10;;;24.93;;
7181;SDS011;3632;42.724;23.298;2023-02-22T04:32:43;52.07;;;26.60;;
7181;SDS011;3632;42.724;23.298;2023-02-22T04:35:10;43.50;;;26.57;;
7181;SDS011;3632;42.724;23.298;2023-02-22T04:37:37;32.00;;;17.50;;
7181;SDS011;3632;42.724;23.298;2023-02-22T04:40:04;37.37;;;22.13;;
7181;SDS011;3632;42.724;23.298;2023-02-22T04:42:34;38.10;;;21.30;;
7181;SDS011;3632;42.724;23.298;2023-02-22T04:45:02;38.00;;;21.23;;
7181;SDS011;3632;42.724;23.298;2023-02-22T04:47:30;46.40;;;23.57;;
7181;SDS011;3632;42.724;23.298;2023-02-22T04:49:56;43.43;;;21.77;;
7181;SDS011;3632;42.724;23.298;2023-02-22T04:52:24;37.33;;;21.37;;
7181;SDS011;3632;42.724;23.298;2023-02-22T04:54:51;35.77;;;21.17;;
7181;SDS011;3632;42.724;23.298;2023-02-22T04:57:18;31.50;;;17.83;;
7181;SDS011;3632;42.724;23.298;2023-02-22T04:59:46;29.30;;;17.33;;
7181;SDS011;3632;42.724;23.298;2023-02-22T05:02:15;29.83;;;16.47;;
7181;SDS011;3632;42.724;23.298;2023-02-22T05:04:42;31.27;;;17.03;;
7181;SDS011;3632;42.724;23.298;2023-02-22T05:07:09;29.27;;;16.90;;
7181;SDS011;3632;42.724;23.298;2023-02-22T05:09:36;23.67;;;14.90;;
7181;SDS011;3632;42.724;23.298;2023-02-22T05:12:03;29.20;;;15.40;;
7181;SDS011;3632;42.724;23.298;2023-02-22T05:14:30;31.83;;;19.13;;
7181;SDS011;3632;42.724;23.298;2023-02-22T05:16:59;34.73;;;18.70;;
7181;SDS011;3632;42.724;23.298;2023-02-22T05:19:28;32.90;;;17.90;;
7181;SDS011;3632;42.724;23.298;2023-02-22T05:21:54;42.23;;;19.77;;
7181;SDS011;3632;42.724;23.298;2023-02-22T05:24:21;45.23;;;23.90;;
7181;SDS011;3632;42.724;23.298;2023-02-22T05:26:49;47.43;;;27.67;;
7181;SDS011;3632;42.724;23.298;2023-02-22T05:29:17;43.20;;;24.27;;
7181;SDS011;3632;42.724;23.298;2023-02-22T05:31:44;45.67;;;22.57;;
7181;SDS011;3632;42.724;23.298;2023-02-22T05:34:12;54.77;;;27.57;;
7181;SDS011;3632;42.724;23.298;2023-02-22T05:36:39;58.63;;;28.73;;
7181;SDS011;3632;42.724;23.298;2023-02-22T05:39:06;36.33;;;20.53;;
7181;SDS011;3632;42.724;23.298;2023-02-22T05:41:33;28.17;;;15.50;;
7181;SDS011;3632;42.724;23.298;2023-02-22T05:43:59;28.67;;;14.67;;
7181;SDS011;3632;42.724;23.298;2023-02-22T05:46:27;31.50;;;15.13;;
7181;SDS011;3632;42.724;23.298;2023-02-22T05:48:54;31.57;;;17.10;;
7181;SDS011;3632;42.724;23.298;2023-02-22T05:51:22;40.67;;;21.97;;
7181;SDS011;3632;42.724;23.298;2023-02-22T05:53:48;39.10;;;21.37;;
7181;SDS011;3632;42.724;23.298;2023-02-22T05:56:19;36.90;;;20.00;;
7181;SDS011;3632;42.724;23.298;2023-02-22T05:58:47;32.43;;;18.23;;
7181;SDS011;3632;42.724;23.298;2023-02-22T06:01:13;47.30;;;26.33;;
7181;SDS011;3632;42.724;23.298;2023-02-22T06:03:40;29.60;;;17.73;;
7181;SDS011;3632;42.724;23.298;2023-02-22T06:06:07;33.37;;;16.83;;
7181;SDS011;3632;42.724;23.298;2023-02-22T06:08:35;24.80;;;15.27;;
7181;SDS011;3632;42.724;23.298;2023-02-22T06:11:02;26.53;;;14.40;;
7181;SDS011;3632;42.724;23.298;2023-02-22T06:13:29;26.97;;;13.50;;
7181;SDS011;3632;42.724;23.298;2023-02-22T06:15:57;28.50;;;15.90;;
7181;SDS011;3632;42.724;23.298;2023-02-22T06:18:24;24.03;;;16.03;;
7181;SDS011;3632;42.724;23.298;2023-02-22T06:20:54;35.97;;;21.13;;
7181;SDS011;3632;42.724;23.298;2023-02-22T06:23:21;56.83;;;37.43;;
7181;SDS011;3632;42.724;23.298;2023-02-22T06:25:49;41.53;;;27.77;;
7181;SDS011;3632;42.724;23.298;2023-02-22T06:28:16;31.73;;;16.10;;
7181;SDS011;3632;42.724;23.298;2023-02-22T06:30:44;55.50;;;32.47;;
7181;SDS011;3632;42.724;23.298;2023-02-22T06:33:10;134.50;;;78.10;;
7181;SDS011;3632;42.724;23.298;2023-02-22T06:35:38;96.57;;;55.97;;
7181;SDS011;3632;42.724;23.298;2023-02-22T06:38:04;75.07;;;45.27;;
7181;SDS011;3632;42.724;23.298;2023-02-22T06:40:31;35.73;;;22.80;;
7181;SDS011;3632;42.724;23.298;2023-02-22T06:43:00;38.80;;;19.97;;
7181;SDS011;3632;42.724;23.298;2023-02-22T06:45:27;30.43;;;17.87;;
7181;SDS011;3632;42.724;23.298;2023-02-22T06:47:54;35.60;;;19.50;;
7181;SDS011;3632;42.724;23.298;2023-02-22T06:50:22;42.40;;;19.80;;
7181;SDS011;3632;42.724;23.298;2023-02-22T06:52:51;46.97;;;20.07;;
7181;SDS011;3632;42.724;23.298;2023-02-22T06:55:18;36.23;;;18.97;;
7181;SDS011;3632;42.724;23.298;2023-02-22T06:57:46;31.50;;;17.03;;
7181;SDS011;3632;42.724;23.298;2023-02-22T07:00:15;23.47;;;15.13;;
7181;SDS011;3632;42.724;23.298;2023-02-22T07:02:44;25.87;;;14.27;;
7181;SDS011;3632;42.724;23.298;2023-02-22T07:05:12;21.80;;;13.80;;
7181;SDS011;3632;42.724;23.298;2023-02-22T07:07:41;25.53;;;13.17;;
7181;SDS011;3632;42.724;23.298;2023-02-22T07:10:13;22.27;;;13.07;;
7181;SDS011;3632;42.724;23.298;2023-02-22T07:12:43;26.47;;;15.00;;
7181;SDS011;3632;42.724;23.298;2023-02-22T07:15:10;36.93;;;15.13;;
7181;SDS011;3632;42.724;23.298;2023-02-22T07:17:39;26.43;;;15.70;;
7181;SDS011;3632;42.724;23.298;2023-02-22T07:20:06;30.20;;;17.07;;
7181;SDS011;3632;42.724;23.298;2023-02-22T07:22:35;25.07;;;14.13;;
7181;SDS011;3632;42.724;23.298;2023-02-22T07:25:03;23.77;;;13.20;;
7181;SDS011;3632;42.724;23.298;2023-02-22T07:27:30;22.70;;;12.93;;
7181;SDS011;3632;42.724;23.298;2023-02-22T07:29:57;23.83;;;13.00;;
7181;SDS011;3632;42.724;23.298;2023-02-22T07:32:24;19.90;;;12.30;;
7181;SDS011;3632;42.724;23.298;2023-02-22T07:34:52;16.67;;;10.40;;
7181;SDS011;3632;42.724;23.298;2023-02-22T07:37:18;19.67;;;12.20;;
7181;SDS011;3632;42.724;23.298;2023-02-22T07:39:46;21.97;;;12.63;;
7181;SDS011;3632;42.724;23.298;2023-02-22T07:42:13;19.00;;;12.33;;
7181;SDS011;3632;42.724;23.298;2023-02-22T07:44:40;22.53;;;11.87;;
7181;SDS011;3632;42.724;23.298;2023-02-22T07:47:06;19.57;;;10.97;;
7181;SDS011;3632;42.724;23.298;2023-02-22T07:49:36;15.30;;;10.70;;
7181;SDS011;3632;42.724;23.298;2023-02-22T07:52:04;14.87;;;10.03;;
7181;SDS011;3632;42.724;23.298;2023-02-22T07:54:32;12.83;;;9.80;;
7181;SDS011;3632;42.724;23.298;2023-02-22T07:56:58;15.47;;;9.47;;
7181;SDS011;3632;42.724;23.298;2023-02-22T07:59:25;16.77;;;9.93;;
7181;SDS011;3632;42.724;23.298;2023-02-22T08:01:53;16.63;;;10.27;;
7181;SDS011;3632;42.724;23.298;2023-02-22T08:04:20;18.13;;;9.77;;
7181;SDS011;3632;42.724;23.298;2023-02-22T08:06:46;13.73;;;10.03;;
7181;SDS011;3632;42.724;23.298;2023-02-22T08:09:15;19.27;;;9.70;;
7181;SDS011;3632;42.724;23.298;2023-02-22T08:11:42;14.53;;;9.67;;
7181;SDS011;3632;42.724;23.298;2023-02-22T08:14:09;17.20;;;9.73;;
7181;SDS011;3632;42.724;23.298;2023-02-22T08:16:36;16.77;;;9.77;;
7181;SDS011;3632;42.724;23.298;2023-02-22T08:19:02;14.40;;;9.93;;
7181;SDS011;3632;42.724;23.298;2023-02-22T08:21:29;11.33;;;8.63;;
7181;SDS011;3632;42.724;23.298;2023-02-22T08:23:56;20.50;;;10.00;;
7181;SDS011;3632;42.724;23.298;2023-02-22T08:26:24;15.23;;;10.03;;
7181;SDS011;3632;42.724;23.298;2023-02-22T08:28:51;18.63;;;9.73;;
7181;SDS011;3632;42.724;23.298;2023-02-22T08:31:18;11.70;;;8.97;;
7181;SDS011;3632;42.724;23.298;2023-02-22T08:33:46;15.00;;;9.07;;
7181;SDS011;3632;42.724;23.298;2023-02-22T08:36:14;13.30;;;9.77;;
7181;SDS011;3632;42.724;23.298;2023-02-22T08:38:42;15.43;;;10.20;;
7181;SDS011;3632;42.724;23.298;2023-02-22T08:41:09;21.43;;;10.50;;
7181;SDS011;3632;42.724;23.298;2023-02-22T08:43:37;20.63;;;11.50;;
7181;SDS011;3632;42.724;23.298;2023-02-22T08:46:04;20.03;;;10.70;;
7181;SDS011;3632;42.724;23.298;2023-02-22T08:48:30;16.80;;;10.40;;
7181;SDS011;3632;42.724;23.298;2023-02-22T08:50:57;19.80;;;11.77;;
7181;SDS011;3632;42.724;23.298;2023-02-22T08:53:24;19.97;;;12.50;;
7181;SDS011;3632;42.724;23.298;2023-02-22T08:55:51;16.37;;;9.93;;
7181;SDS011;3632;42.724;23.298;2023-02-22T08:58:18;16.37;;;9.40;;
7181;SDS011;3632;42.724;23.298;2023-02-22T09:00:46;10.43;;;7.43;;
7181;SDS011;3632;42.724;23.298;2023-02-22T09:03:13;17.03;;;7.37;;
7181;SDS011;3632;42.724;23.298;2023-02-22T09:05:40;14.17;;;8.93;;
7181;SDS011;3632;42.724;23.298;2023-02-22T09:08:08;13.30;;;8.73;;
7181;SDS011;3632;42.724;23.298;2023-02-22T09:10:35;12.63;;;7.97;;
7181;SDS011;3632;42.724;23.298;2023-02-22T09:13:03;13.53;;;7.47;;
7181;SDS011;3632;42.724;23.298;2023-02-22T09:15:30;14.30;;;9.50;;
7181;SDS011;3632;42.724;23.298;2023-02-22T09:18:01;12.40;;;7.47;;
7181;SDS011;3632;42.724;23.298;2023-02-22T09:20:29;13.17;;;7.47;;
7181;SDS011;3632;42.724;23.298;2023-02-22T09:22:56;10.30;;;7.37;;
7181;SDS011;3632;42.724;23.298;2023-02-22T09:25:23;12.13;;;7.90;;
7181;SDS011;3632;42.724;23.298;2023-02-22T09:27:51;11.43;;;7.00;;
7181;SDS011;3632;42.724;23.298;2023-02-22T09:30:21;11.17;;;6.77;;
7181;SDS011;3632;42.724;23.298;2023-02-22T09:32:50;10.27;;;6.57;;
7181;SDS011;3632;42.724;23.298;2023-02-22T09:35:20;7.87;;;5.90;;
7181;SDS011;3632;42.724;23.298;2023-02-22T09:37:51;9.47;;;5.80;;
7181;SDS011;3632;42.724;23.298;2023-02-22T09:40:19;8.10;;;4.70;;
7181;SDS011;3632;42.724;23.298;2023-02-22T09:42:55;8.07;;;4.90;;
7181;SDS011;3632;42.724;23.298;2023-02-22T09:45:33;9.67;;;5.97;;
7181;SDS011;3632;42.724;23.298;2023-02-22T09:48:05;6.63;;;4.17;;
7181;SDS011;3632;42.724;23.298;2023-02-22T09:50:35;7.80;;;4.87;;
7181;SDS011;3632;42.724;23.298;2023-02-22T09:53:10;6.67;;;4.77;;
7181;SDS011;3632;42.724;23.298;2023-02-22T09:55:53;7.33;;;4.80;;
7181;SDS011;3632;42.724;23.298;2023-02-22T09:58:25;8.03;;;4.73;;
7181;SDS011;3632;42.724;23.298;2023-02-22T10:01:07;6.17;;;4.60;;
7181;SDS011;3632;42.724;23.298;2023-02-22T10:03:49;6.57;;;4.87;;
7181;SDS011;3632;42.724;23.298;2023-02-22T10:06:23;6.60;;;4.63;;
7181;SDS011;3632;42.724;23.298;2023-02-22T10:08:52;5.13;;;4.10;;
7181;SDS011;3632;42.724;23.298;2023-02-22T10:11:28;4.77;;;3.80;;
7181;SDS011;3632;42.724;23.298;2023-02-22T10:14:15;6.00;;;4.23;;
7181;SDS011;3632;42.724;23.298;2023-02-22T10:16:59;8.30;;;4.13;;
7181;SDS011;3632;42.724;23.298;2023-02-22T10:19:35;5.20;;;4.13;;
7181;SDS011;3632;42.724;23.298;2023-02-22T10:22:23;7.53;;;4.83;;
7181;SDS011;3632;42.724;23.298;2023-02-22T10:24:58;4.80;;;3.47;;
7181;SDS011;3632;42.724;23.298;2023-02-22T10:27:28;5.63;;;3.60;;
7181;SDS011;3632;42.724;23.298;2023-02-22T10:30:00;4.60;;;3.47;;
7181;SDS011;3632;42.724;23.298;2023-02-22T10:32:35;5.77;;;3.43;;
7181;SDS011;3632;42.724;23.298;2023-02-22T10:35:12;5.93;;;3.87;;
7181;SDS011;3632;42.724;23.298;2023-02-22T10:37:47;4.93;;;4.20;;
7181;SDS011;3632;42.724;23.298;2023-02-22T10:40:18;6.77;;;4.03;;
7181;SDS011;3632;42.724;23.298;2023-02-22T10:42:47;7.57;;;6.23;;
7181;SDS011;3632;42.724;23.298;2023-02-22T10:45:19;6.43;;;4.40;;
7181;SDS011;3632;42.724;23.298;2023-02-22T10:47:49;6.23;;;4.03;;
7181;SDS011;3632;42.724;23.298;2023-02-22T10:50:20;6.03;;;4.20;;
7181;SDS011;3632;42.724;23.298;2023-02-22T10:52:49;5.10;;;4.17;;
7181;SDS011;3632;42.724;23.298;2023-02-22T10:55:16;7.17;;;4.07;;
7181;SDS011;3632;42.724;23.298;2023-02-22T10:57:43;5.80;;;4.10;;
7181;SDS011;3632;42.724;23.298;2023-02-22T11:00:15;6.87;;;3.80;;
7181;SDS011;3632;42.724;23.298;2023-02-22T11:02:51;6.30;;;4.67;;
7181;SDS011;3632;42.724;23.298;2023-02-22T11:05:27;4.90;;;3.60;;
7181;SDS011;3632;42.724;23.298;2023-02-22T11:08:13;5.57;;;4.13;;
7181;SDS011;3632;42.724;23.298;2023-02-22T11:10:52;5.20;;;4.50;;
7181;SDS011;3632;42.724;23.298;2023-02-22T11:13:25;7.27;;;6.07;;
7181;SDS011;3632;42.724;23.298;2023-02-22T11:15:56;6.53;;;3.73;;
7181;SDS011;3632;42.724;23.298;2023-02-22T11:18:27;6.97;;;4.37;;
7181;SDS011;3632;42.724;23.298;2023-02-22T11:21:00;4.90;;;3.30;;
7181;SDS011;3632;42.724;23.298;2023-02-22T11:23:31;4.13;;;3.40;;
7181;SDS011;3632;42.724;23.298;2023-02-22T11:26:02;4.57;;;3.90;;
7181;SDS011;3632;42.724;23.298;2023-02-22T11:28:32;6.63;;;4.00;;
7181;SDS011;3632;42.724;23.298;2023-02-22T11:31:13;7.17;;;5.43;;
7181;SDS011;3632;42.724;23.298;2023-02-22T11:33:45;8.30;;;3.60;;
7181;SDS011;3632;42.724;23.298;2023-02-22T11:36:28;5.83;;;3.33;;
7181;SDS011;3632;42.724;23.298;2023-02-22T11:38:58;3.97;;;3.07;;
7181;SDS011;3632;42.724;23.298;2023-02-22T11:41:29;13.83;;;3.83;;
7181;SDS011;3632;42.724;23.298;2023-02-22T11:44:11;4.60;;;3.20;;
7181;SDS011;3632;42.724;23.298;2023-02-22T11:46:40;3.70;;;3.13;;
7181;SDS011;3632;42.724;23.298;2023-02-22T11:49:09;4.30;;;3.40;;
7181;SDS011;3632;42.724;23.298;2023-02-22T11:51:49;3.07;;;2.63;;
7181;SDS011;3632;42.724;23.298;2023-02-22T11:54:31;4.90;;;2.97;;
7181;SDS011;3632;42.724;23.298;2023-02-22T11:57:11;6.93;;;3.23;;
7181;SDS011;3632;42.724;23.298;2023-02-22T11:59:51;5.27;;;2.50;;
7181;SDS011;3632;42.724;23.298;2023-02-22T12:02:39;8.03;;;3.17;;
7181;SDS011;3632;42.724;23.298;2023-02-22T12:05:35;3.30;;;2.83;;
7181;SDS011;3632;42.724;23.298;2023-02-22T12:08:24;3.37;;;2.90;;
7181;SDS011;3632;42.724;23.298;2023-02-22T12:11:04;4.10;;;2.43;;
7181;SDS011;3632;42.724;23.298;2023-02-22T12:13:40;2.97;;;2.67;;
7181;SDS011;3632;42.724;23.298;2023-02-22T12:16:17;3.50;;;2.23;;
7181;SDS011;3632;42.724;23.298;2023-02-22T12:19:01;4.70;;;2.47;;
7181;SDS011;3632;42.724;23.298;2023-02-22T12:21:37;4.73;;;2.40;;
7181;SDS011;3632;42.724;23.298;2023-02-22T12:24:08;2.93;;;2.40;;
7181;SDS011;3632;42.724;23.298;2023-02-22T12:26:40;2.70;;;2.30;;
7181;SDS011;3632;42.724;23.298;2023-02-22T12:29:11;2.83;;;2.10;;
7181;SDS011;3632;42.724;23.298;2023-02-22T12:31:46;6.50;;;2.73;;
7181;SDS011;3632;42.724;23.298;2023-02-22T12:34:19;3.03;;;2.23;;
7181;SDS011;3632;42.724;23.298;2023-02-22T12:36:54;5.47;;;2.50;;
7181;SDS011;3632;42.724;23.298;2023-02-22T12:39:31;5.90;;;2.40;;
7181;SDS011;3632;42.724;23.298;2023-02-22T12:42:12;2.93;;;2.70;;
7181;SDS011;3632;42.724;23.298;2023-02-22T12:44:43;3.30;;;2.97;;
7181;SDS011;3632;42.724;23.298;2023-02-22T12:47:15;2.60;;;2.40;;
7181;SDS011;3632;42.724;23.298;2023-02-22T12:49:47;3.30;;;2.50;;
7181;SDS011;3632;42.724;23.298;2023-02-22T12:52:25;4.03;;;2.70;;
7181;SDS011;3632;42.724;23.298;2023-02-22T12:55:06;3.27;;;2.80;;
7181;SDS011;3632;42.724;23.298;2023-02-22T12:57:43;2.83;;;2.47;;
7181;SDS011;3632;42.724;23.298;2023-02-22T13:00:19;2.87;;;2.13;;
7181;SDS011;3632;42.724;23.298;2023-02-22T13:02:53;3.33;;;2.00;;
7181;SDS011;3632;42.724;23.298;2023-02-22T13:05:26;3.77;;;2.70;;
7181;SDS011;3632;42.724;23.298;2023-02-22T13:08:06;2.40;;;2.20;;
7181;SDS011;3632;42.724;23.298;2023-02-22T13:10:52;2.90;;;2.40;;
7181;SDS011;3632;42.724;23.298;2023-02-22T13:13:28;3.90;;;2.70;;
7181;SDS011;3632;42.724;23.298;2023-02-22T13:16:04;4.13;;;2.80;;
7181;SDS011;3632;42.724;23.298;2023-02-22T13:18:47;3.43;;;2.50;;
7181;SDS011;3632;42.724;23.298;2023-02-22T13:21:20;2.83;;;2.40;;
7181;SDS011;3632;42.724;23.298;2023-02-22T13:23:55;5.00;;;2.43;;
7181;SDS011;3632;42.724;23.298;2023-02-22T13:26:30;3.73;;;2.40;;
7181;SDS011;3632;42.724;23.298;2023-02-22T13:29:05;3.10;;;2.80;;
7181;SDS011;3632;42.724;23.298;2023-02-22T13:31:49;3.03;;;2.80;;
7181;SDS011;3632;42.724;23.298;2023-02-22T13:37:37;3.70;;;2.50;;
7181;SDS011;3632;42.724;23.298;2023-02-22T13:40:18;4.57;;;2.70;;
7181;SDS011;3632;42.724;23.298;2023-02-22T13:43:22;3.57;;;2.60;;
7181;SDS011;3632;42.724;23.298;2023-02-22T13:46:20;3.90;;;2.60;;
7181;SDS011;3632;42.724;23.298;2023-02-22T13:49:16;4.47;;;2.30;;
7181;SDS011;3632;42.724;23.298;2023-02-22T13:51:55;5.00;;;2.77;;
7181;SDS011;3632;42.724;23.298;2023-02-22T13:54:26;4.13;;;3.20;;
7181;SDS011;3632;42.724;23.298;2023-02-22T13:57:03;4.27;;;2.90;;
7181;SDS011;3632;42.724;23.298;2023-02-22T13:59:42;3.27;;;2.83;;
7181;SDS011;3632;42.724;23.298;2023-02-22T14:02:31;4.17;;;2.70;;
7181;SDS011;3632;42.724;23.298;2023-02-22T14:08:05;3.10;;;2.50;;
7181;SDS011;3632;42.724;23.298;2023-02-22T14:10:35;3.50;;;2.70;;
7181;SDS011;3632;42.724;23.298;2023-02-22T14:13:14;3.67;;;2.67;;
7181;SDS011;3632;42.724;23.298;2023-02-22T14:18:40;3.73;;;2.30;;
7181;SDS011;3632;42.724;23.298;2023-02-22T14:21:09;4.20;;;2.70;;
7181;SDS011;3632;42.724;23.298;2023-02-22T14:23:37;2.30;;;2.10;;
7181;SDS011;3632;42.724;23.298;2023-02-22T14:26:10;5.53;;;2.40;;
7181;SDS011;3632;42.724;23.298;2023-02-22T14:28:42;3.10;;;2.80;;
7181;SDS011;3632;42.724;23.298;2023-02-22T14:31:16;2.57;;;2.33;;
7181;SDS011;3632;42.724;23.298;2023-02-22T14:33:50;4.20;;;2.83;;
7181;SDS011;3632;42.724;23.298;2023-02-22T14:36:21;6.57;;;3.00;;
7181;SDS011;3632;42.724;23.298;2023-02-22T14:38:51;5.00;;;3.03;;
7181;SDS011;3632;42.724;23.298;2023-02-22T14:41:20;6.10;;;3.23;;
7181;SDS011;3632;42.724;23.298;2023-02-22T14:43:52;5.27;;;3.07;;
7181;SDS011;3632;42.724;23.298;2023-02-22T14:46:21;4.40;;;2.90;;
7181;SDS011;3632;42.724;23.298;2023-02-22T14:48:57;5.17;;;2.73;;
7181;SDS011;3632;42.724;23.298;2023-02-22T14:51:30;5.13;;;3.80;;
7181;SDS011;3632;42.724;23.298;2023-02-22T14:54:07;5.50;;;3.47;;
7181;SDS011;3632;42.724;23.298;2023-02-22T14:56:41;7.30;;;4.13;;
7181;SDS011;3632;42.724;23.298;2023-02-22T14:59:14;4.43;;;3.53;;
7181;SDS011;3632;42.724;23.298;2023-02-22T15:01:43;5.23;;;4.07;;
7181;SDS011;3632;42.724;23.298;2023-02-22T15:04:17;5.47;;;3.87;;
7181;SDS011;3632;42.724;23.298;2023-02-22T15:06:45;7.80;;;4.10;;
7181;SDS011;3632;42.724;23.298;2023-02-22T15:09:14;4.70;;;4.13;;
7181;SDS011;3632;42.724;23.298;2023-02-22T15:11:48;4.77;;;4.07;;
7181;SDS011;3632;42.724;23.298;2023-02-22T15:14:16;5.63;;;4.20;;
7181;SDS011;3632;42.724;23.298;2023-02-22T15:16:46;7.17;;;4.23;;
7181;SDS011;3632;42.724;23.298;2023-02-22T15:19:18;6.27;;;4.50;;
7181;SDS011;3632;42.724;23.298;2023-02-22T15:21:51;6.67;;;4.70;;